createdAt,value
2023-01-29T00:02:05.547Z,8.43
2023-01-29T00:04:32.431Z,9.38
2023-01-29T00:06:59.030Z,9.45
2023-01-29T00:09:27.657Z,8.10
2023-01-29T00:11:54.355Z,8.98
2023-01-29T00:14:21.344Z,8.65
2023-01-29T00:16:47.995Z,8.82
2023-01-29T00:19:14.793Z,8.75
2023-01-29T00:21:41.420Z,9.27
2023-01-29T00:24:08.285Z,9.00
2023-01-29T00:26:36.434Z,9.85
2023-01-29T00:29:03.120Z,9.70
2023-01-29T00:31:29.999Z,10.32
2023-01-29T00:33:56.996Z,10.02
2023-01-29T00:36:25.593Z,10.80
2023-01-29T00:38:54.976Z,11.25
2023-01-29T00:41:22.150Z,11.35
2023-01-29T00:43:50.170Z,11.77
2023-01-29T00:46:16.884Z,10.80
2023-01-29T00:48:43.539Z,10.85
2023-01-29T00:51:10.163Z,10.63
2023-01-29T00:53:36.821Z,11.32
2023-01-29T00:56:03.628Z,12.02
2023-01-29T00:58:30.212Z,11.43
2023-01-29T01:00:58.185Z,11.75
2023-01-29T01:03:24.964Z,12.27
2023-01-29T01:06:02.016Z,11.93
2023-01-29T01:08:28.598Z,12.85
2023-01-29T01:10:59.674Z,12.77
2023-01-29T01:13:26.266Z,12.10
2023-01-29T01:15:53.089Z,13.60
2023-01-29T01:18:21.264Z,12.55
2023-01-29T01:20:48.285Z,12.85
2023-01-29T01:23:14.932Z,12.25
2023-01-29T01:25:41.542Z,12.98
2023-01-29T01:28:08.955Z,12.57
2023-01-29T01:30:35.661Z,13.52
2023-01-29T01:33:02.373Z,12.80
2023-01-29T01:35:30.621Z,12.55
2023-01-29T01:37:57.223Z,12.82
2023-01-29T01:40:26.120Z,12.90
2023-01-29T01:42:54.364Z,12.80
2023-01-29T01:45:25.502Z,12.95
2023-01-29T01:47:55.920Z,13.45
2023-01-29T01:50:26.759Z,12.35
2023-01-29T01:52:59.764Z,13.05
2023-01-29T01:55:29.906Z,12.65
2023-01-29T01:58:02.130Z,14.32
2023-01-29T02:00:28.801Z,13.52
2023-01-29T02:02:55.690Z,14.05
2023-01-29T02:05:22.519Z,12.82
2023-01-29T02:07:51.417Z,12.93
2023-01-29T02:10:20.677Z,12.75
2023-01-29T02:12:47.822Z,13.43
2023-01-29T02:15:14.431Z,13.40
2023-01-29T02:17:41.156Z,12.40
2023-01-29T02:20:18.099Z,13.25
2023-01-29T02:23:18.576Z,12.85
2023-01-29T02:26:08.064Z,13.32
2023-01-29T02:28:44.635Z,13.07
2023-01-29T02:31:21.861Z,13.25
2023-01-29T02:34:00.503Z,14.02
2023-01-29T02:36:36.193Z,13.65
2023-01-29T02:39:13.009Z,13.38
2023-01-29T02:41:44.505Z,13.43
2023-01-29T02:44:20.820Z,13.38
2023-01-29T02:46:56.681Z,14.25
2023-01-29T02:49:31.751Z,13.27
2023-01-29T02:52:03.245Z,13.30
2023-01-29T02:54:37.995Z,13.32
2023-01-29T02:57:10.255Z,12.73
2023-01-29T02:59:42.873Z,13.40
2023-01-29T03:02:12.234Z,13.75
2023-01-29T03:04:43.056Z,13.55
2023-01-29T03:07:15.523Z,13.27
2023-01-29T03:09:48.253Z,13.83
2023-01-29T03:12:22.503Z,13.07
2023-01-29T03:14:51.477Z,13.02
2023-01-29T03:17:20.141Z,12.60
2023-01-29T03:19:48.905Z,13.60
2023-01-29T03:22:17.200Z,13.73
2023-01-29T03:24:47.423Z,13.30
2023-01-29T03:27:18.054Z,14.35
2023-01-29T03:29:46.913Z,12.23
2023-01-29T03:32:16.829Z,13.45
2023-01-29T03:34:48.112Z,13.75
2023-01-29T03:37:21.285Z,13.77
2023-01-29T03:39:48.167Z,13.45
2023-01-29T03:42:22.464Z,14.50
2023-01-29T03:44:57.162Z,14.50
2023-01-29T03:47:32.437Z,15.27
2023-01-29T03:50:03.045Z,13.93
2023-01-29T03:52:40.924Z,14.85
2023-01-29T03:55:14.877Z,14.63
2023-01-29T03:57:45.175Z,14.95
2023-01-29T04:00:16.460Z,16.00
2023-01-29T04:02:51.055Z,15.35
2023-01-29T04:05:21.223Z,14.63
2023-01-29T04:07:52.632Z,16.05
2023-01-29T04:10:22.831Z,16.30
2023-01-29T04:12:55.041Z,16.20
2023-01-29T04:15:23.120Z,16.08
2023-01-29T04:17:52.956Z,16.33
2023-01-29T04:20:20.294Z,15.95
2023-01-29T04:22:51.074Z,15.93
2023-01-29T04:25:22.324Z,17.15
2023-01-29T04:27:57.206Z,16.52
2023-01-29T04:30:33.166Z,16.50
2023-01-29T04:33:17.220Z,15.73
2023-01-29T04:35:56.079Z,16.13
2023-01-29T04:38:32.265Z,16.65
2023-01-29T04:41:05.017Z,14.50
2023-01-29T04:43:39.482Z,15.10
2023-01-29T04:46:14.076Z,17.10
2023-01-29T04:48:54.975Z,15.93
2023-01-29T04:51:25.698Z,15.93
2023-01-29T04:54:00.411Z,16.17
2023-01-29T04:56:35.487Z,16.25
2023-01-29T04:59:06.502Z,16.75
2023-01-29T05:01:35.575Z,15.77
2023-01-29T05:04:08.993Z,17.08
2023-01-29T05:09:02.993Z,15.80
2023-01-29T05:11:32.131Z,16.35
2023-01-29T05:14:02.211Z,15.95
2023-01-29T05:16:33.391Z,16.17
2023-01-29T05:18:59.979Z,17.30
2023-01-29T05:21:28.377Z,16.77
2023-01-29T05:24:10.846Z,17.42
2023-01-29T05:26:37.807Z,17.73
2023-01-29T05:29:04.436Z,17.58
2023-01-29T05:31:31.406Z,17.20
2023-01-29T05:33:58.084Z,16.13
2023-01-29T05:36:24.651Z,16.63
2023-01-29T05:38:52.679Z,16.45
2023-01-29T05:41:19.355Z,17.10
2023-01-29T05:43:45.991Z,17.35
2023-01-29T05:46:12.609Z,17.80
2023-01-29T05:48:39.286Z,17.60
2023-01-29T05:51:06.046Z,16.38
2023-01-29T05:53:33.397Z,17.80
2023-01-29T05:56:02.771Z,16.35
2023-01-29T05:58:31.176Z,18.52
2023-01-29T06:00:58.054Z,17.75
2023-01-29T06:03:24.680Z,17.33
2023-01-29T06:05:51.289Z,17.73
2023-01-29T06:08:17.883Z,17.52
2023-01-29T06:10:44.492Z,17.08
2023-01-29T06:13:12.473Z,17.13
2023-01-29T06:15:40.000Z,17.95
2023-01-29T06:18:06.560Z,16.83
2023-01-29T06:20:33.234Z,17.75
2023-01-29T06:23:00.288Z,18.30
2023-01-29T06:25:26.944Z,17.58
2023-01-29T06:27:53.567Z,18.15
2023-01-29T06:30:21.959Z,17.48
2023-01-29T06:32:48.592Z,18.40
2023-01-29T06:35:15.227Z,17.73
2023-01-29T06:37:42.040Z,17.30
2023-01-29T06:40:09.940Z,18.02
2023-01-29T06:42:36.556Z,17.23
2023-01-29T06:45:04.508Z,18.20
2023-01-29T06:47:32.689Z,16.77
2023-01-29T06:49:59.268Z,18.15
2023-01-29T06:52:25.878Z,18.83
2023-01-29T06:54:52.503Z,17.90
2023-01-29T06:57:19.163Z,18.17
2023-01-29T06:59:45.785Z,17.27
2023-01-29T07:02:12.775Z,17.83
2023-01-29T07:04:40.863Z,18.75
2023-01-29T07:07:07.539Z,17.85
2023-01-29T07:09:34.111Z,18.85
2023-01-29T07:12:00.815Z,17.85
2023-01-29T07:14:27.427Z,18.80
2023-01-29T07:16:54.144Z,18.45
2023-01-29T07:19:20.721Z,18.80
2023-01-29T07:21:48.794Z,18.58
2023-01-29T07:24:15.896Z,19.65
2023-01-29T07:26:42.635Z,18.95
2023-01-29T07:29:09.331Z,20.38
2023-01-29T07:31:36.049Z,18.85
2023-01-29T07:34:02.939Z,20.13
2023-01-29T07:36:29.781Z,19.73
2023-01-29T07:38:57.831Z,20.60
2023-01-29T07:41:24.450Z,19.70
2023-01-29T07:43:51.346Z,19.08
2023-01-29T07:46:18.075Z,19.60
2023-01-29T07:48:44.756Z,20.65
2023-01-29T07:51:11.338Z,19.67
2023-01-29T07:53:37.977Z,20.90
2023-01-29T07:56:06.489Z,20.58
2023-01-29T07:58:35.595Z,21.13
2023-01-29T08:01:05.634Z,20.58
2023-01-29T08:03:32.347Z,19.48
2023-01-29T08:05:59.004Z,20.17
2023-01-29T08:08:25.576Z,19.55
2023-01-29T08:10:52.173Z,18.85
2023-01-29T08:13:20.181Z,19.98
2023-01-29T08:15:46.975Z,18.40
2023-01-29T08:18:14.196Z,19.38
2023-01-29T08:20:40.932Z,20.45
2023-01-29T08:23:10.137Z,19.75
2023-01-29T08:25:36.930Z,18.67
2023-01-29T08:28:04.349Z,18.83
2023-01-29T08:30:34.641Z,18.13
2023-01-29T08:33:02.959Z,18.58
2023-01-29T08:35:29.531Z,19.52
2023-01-29T08:37:57.315Z,19.27
2023-01-29T08:40:23.997Z,19.15
2023-01-29T08:42:50.740Z,18.95
2023-01-29T08:45:17.559Z,18.70
2023-01-29T08:47:49.648Z,18.30
2023-01-29T08:50:17.825Z,19.27
2023-01-29T08:52:45.851Z,18.90
2023-01-29T08:55:13.204Z,18.65
2023-01-29T08:57:40.273Z,18.77
2023-01-29T09:00:08.467Z,17.75
2023-01-29T09:02:35.268Z,18.25
2023-01-29T09:05:03.492Z,17.73
2023-01-29T09:07:30.481Z,18.17
2023-01-29T09:09:57.106Z,17.27
2023-01-29T09:12:23.776Z,18.77
2023-01-29T09:14:50.437Z,17.83
2023-01-29T09:17:17.058Z,17.75
2023-01-29T09:19:43.656Z,17.95
2023-01-29T09:22:12.009Z,16.90
2023-01-29T09:24:38.754Z,17.98
2023-01-29T09:27:05.592Z,16.55
2023-01-29T09:29:34.688Z,17.55
2023-01-29T09:32:03.447Z,17.08
2023-01-29T09:34:30.179Z,17.40
2023-01-29T09:36:56.953Z,16.25
2023-01-29T09:39:25.126Z,17.20
2023-01-29T09:41:59.782Z,15.95
2023-01-29T09:44:46.236Z,16.40
2023-01-29T09:47:16.084Z,16.88
2023-01-29T09:49:47.167Z,16.02
2023-01-29T09:52:19.090Z,14.57
2023-01-29T09:54:54.849Z,15.48
2023-01-29T09:57:30.580Z,15.05
2023-01-29T09:59:57.451Z,16.38
2023-01-29T10:02:43.079Z,15.48
2023-01-29T10:05:19.574Z,15.00
2023-01-29T10:08:18.942Z,16.08
2023-01-29T10:10:51.355Z,14.70
2023-01-29T10:13:32.725Z,14.93
2023-01-29T10:16:12.292Z,15.07
2023-01-29T10:18:52.996Z,14.55
2023-01-29T10:21:52.314Z,14.32
2023-01-29T10:24:31.978Z,14.30
2023-01-29T10:27:01.873Z,14.05
2023-01-29T10:29:31.602Z,13.75
2023-01-29T10:32:02.529Z,13.02
2023-01-29T10:34:35.121Z,13.60
2023-01-29T10:37:10.816Z,13.67
2023-01-29T10:39:37.640Z,14.05
2023-01-29T10:42:17.518Z,13.07
2023-01-29T10:45:07.027Z,13.10
2023-01-29T10:47:57.904Z,13.35
2023-01-29T10:50:41.411Z,12.85
2023-01-29T10:53:27.330Z,13.40
2023-01-29T10:56:14.066Z,12.40
2023-01-29T10:58:51.546Z,13.60
2023-01-29T11:01:18.328Z,12.35
2023-01-29T11:03:45.175Z,14.00
2023-01-29T11:06:17.873Z,12.60
2023-01-29T11:08:52.563Z,12.38
2023-01-29T11:11:22.197Z,12.82
2023-01-29T11:13:54.845Z,12.98
2023-01-29T11:16:21.640Z,13.05
2023-01-29T11:18:50.477Z,12.27
2023-01-29T11:21:17.214Z,12.45
2023-01-29T11:23:43.910Z,12.52
2023-01-29T11:26:13.721Z,13.15
2023-01-29T11:28:42.432Z,12.45
2023-01-29T11:31:18.892Z,13.93
2023-01-29T11:33:46.326Z,12.98
2023-01-29T11:36:30.086Z,11.98
2023-01-29T11:39:13.792Z,13.27
2023-01-29T11:44:26.506Z,12.50
2023-01-29T11:46:55.734Z,13.35
2023-01-29T11:49:30.789Z,13.90
2023-01-29T11:52:00.687Z,13.70
2023-01-29T11:54:31.663Z,13.02
2023-01-29T11:56:59.285Z,12.68
2023-01-29T11:59:37.871Z,13.70
2023-01-29T12:02:19.542Z,12.65
2023-01-29T12:04:47.951Z,13.77
2023-01-29T12:07:17.878Z,13.65
2023-01-29T12:09:49.780Z,12.40
2023-01-29T12:12:29.324Z,12.82
2023-01-29T12:15:15.587Z,13.02
2023-01-29T12:17:51.406Z,13.30
2023-01-29T12:20:23.187Z,13.68
2023-01-29T12:22:56.420Z,12.77
2023-01-29T12:25:35.052Z,13.60
2023-01-29T12:28:09.668Z,13.90
2023-01-29T12:30:46.164Z,14.27
2023-01-29T12:33:23.929Z,14.88
2023-01-29T12:35:56.442Z,13.85
2023-01-29T12:38:24.497Z,13.17
2023-01-29T12:40:55.129Z,13.10
2023-01-29T12:43:27.609Z,14.48
2023-01-29T12:45:57.000Z,14.47
2023-01-29T12:48:30.140Z,14.13
2023-01-29T12:51:04.645Z,14.45
2023-01-29T12:53:35.163Z,13.63
2023-01-29T12:56:05.970Z,14.32
2023-01-29T12:58:38.142Z,12.90
2023-01-29T13:01:14.156Z,15.20
2023-01-29T13:03:51.549Z,14.25
2023-01-29T13:06:22.364Z,14.00
2023-01-29T13:08:51.896Z,14.52
2023-01-29T13:11:24.691Z,17.13
2023-01-29T13:13:56.556Z,16.83
2023-01-29T13:16:27.736Z,14.95
2023-01-29T13:18:58.204Z,15.45
2023-01-29T13:21:29.116Z,17.02
2023-01-29T13:24:00.124Z,16.52
2023-01-29T13:26:26.983Z,15.02
2023-01-29T13:28:54.876Z,14.05
2023-01-29T13:31:29.358Z,14.15
2023-01-29T13:34:14.023Z,14.65
2023-01-29T13:36:43.596Z,16.27
2023-01-29T13:39:22.505Z,15.75
2023-01-29T13:41:50.836Z,16.23
2023-01-29T13:44:24.130Z,16.23
2023-01-29T13:46:55.832Z,16.95
2023-01-29T13:49:29.424Z,18.95
2023-01-29T13:51:57.445Z,18.52
2023-01-29T13:54:26.653Z,19.52
2023-01-29T13:57:01.203Z,17.45
2023-01-29T13:59:50.409Z,18.55
2023-01-29T14:02:25.739Z,18.90
2023-01-29T14:05:32.307Z,19.98
2023-01-29T14:07:59.546Z,19.52
2023-01-29T14:10:27.644Z,21.02
2023-01-29T14:12:55.556Z,21.92
2023-01-29T14:15:30.999Z,21.55
2023-01-29T14:18:14.655Z,21.05
2023-01-29T14:23:32.436Z,20.90
2023-01-29T14:26:01.681Z,19.65
2023-01-29T14:28:30.782Z,19.48
2023-01-29T14:30:58.028Z,20.38
2023-01-29T14:33:28.634Z,21.20
2023-01-29T14:35:58.281Z,20.98
2023-01-29T14:38:27.682Z,20.52
2023-01-29T14:41:05.739Z,20.85
2023-01-29T14:43:32.387Z,21.75
2023-01-29T14:46:42.761Z,20.20
2023-01-29T14:49:09.523Z,20.30
2023-01-29T14:51:41.775Z,18.98
2023-01-29T14:54:21.180Z,19.90
2023-01-29T14:56:56.804Z,19.90
2023-01-29T14:59:30.639Z,20.98
2023-01-29T15:02:02.640Z,19.35
2023-01-29T15:04:35.875Z,20.30
2023-01-29T15:07:12.785Z,20.83
2023-01-29T15:09:45.715Z,19.65
2023-01-29T15:12:21.466Z,18.73
2023-01-29T15:14:56.807Z,20.08
2023-01-29T15:17:28.156Z,20.02
2023-01-29T15:19:55.070Z,19.52
2023-01-29T15:22:24.701Z,20.25
2023-01-29T15:25:04.414Z,19.48
2023-01-29T15:27:31.310Z,19.27
2023-01-29T15:30:01.195Z,18.88
2023-01-29T15:32:33.114Z,20.33
2023-01-29T15:35:00.529Z,18.25
2023-01-29T15:37:31.608Z,18.38
2023-01-29T15:39:59.602Z,19.40
2023-01-29T15:42:27.797Z,19.52
2023-01-29T15:44:54.885Z,18.48
2023-01-29T15:47:25.566Z,18.60
2023-01-29T15:49:52.708Z,18.38
2023-01-29T15:52:23.359Z,19.17
2023-01-29T15:54:51.989Z,17.55
2023-01-29T15:57:22.800Z,18.13
2023-01-29T15:59:50.788Z,18.38
2023-01-29T16:02:41.923Z,18.17
2023-01-29T16:05:15.495Z,17.45
2023-01-29T16:07:43.383Z,18.80
2023-01-29T16:10:18.844Z,18.65
2023-01-29T16:12:46.634Z,17.67
2023-01-29T16:15:23.257Z,18.83
2023-01-29T16:17:50.104Z,18.00
2023-01-29T16:20:30.780Z,16.95
2023-01-29T16:22:58.202Z,17.88
2023-01-29T16:25:29.314Z,19.10
2023-01-29T16:27:56.696Z,18.10
2023-01-29T16:30:26.661Z,18.23
2023-01-29T16:33:00.424Z,17.77
2023-01-29T16:35:27.260Z,17.02
2023-01-29T16:37:59.644Z,17.60
2023-01-29T16:40:29.751Z,15.10
2023-01-29T16:43:31.301Z,16.70
2023-01-29T16:46:05.563Z,16.60
2023-01-29T16:48:34.083Z,16.58
2023-01-29T16:51:05.071Z,16.08
2023-01-29T16:53:32.104Z,16.40
2023-01-29T16:56:05.814Z,15.40
2023-01-29T16:58:32.707Z,15.52
2023-01-29T17:01:02.641Z,16.85
2023-01-29T17:03:33.271Z,16.63
2023-01-29T17:06:08.367Z,16.50
2023-01-29T17:08:35.365Z,15.90
2023-01-29T17:11:03.929Z,15.82
2023-01-29T17:13:36.537Z,16.13
2023-01-29T17:16:15.955Z,14.90
2023-01-29T17:18:43.119Z,15.00
2023-01-29T17:21:09.786Z,15.63
2023-01-29T17:23:36.633Z,15.25
2023-01-29T17:26:05.974Z,14.35
2023-01-29T17:28:33.627Z,14.98
2023-01-29T17:31:06.179Z,14.60
2023-01-29T17:36:00.979Z,14.30
2023-01-29T17:38:27.720Z,14.73
2023-01-29T17:40:57.562Z,14.77
2023-01-29T17:43:25.710Z,14.10
2023-01-29T17:45:52.439Z,14.43
2023-01-29T17:48:22.293Z,13.68
2023-01-29T17:50:51.308Z,13.88
2023-01-29T17:53:18.211Z,14.43
2023-01-29T17:55:44.878Z,14.65
2023-01-29T17:58:17.813Z,14.50
2023-01-29T18:00:46.453Z,13.27
2023-01-29T18:03:13.277Z,13.75
2023-01-29T18:05:40.898Z,13.27
2023-01-29T18:08:14.292Z,14.40
2023-01-29T18:13:07.573Z,12.70
2023-01-29T18:15:34.422Z,13.10
2023-01-29T18:18:02.615Z,13.77
2023-01-29T18:20:29.412Z,12.55
2023-01-29T18:22:56.206Z,13.52
2023-01-29T18:25:24.830Z,12.75
2023-01-29T18:27:52.551Z,12.85
2023-01-29T18:30:19.258Z,12.25
2023-01-29T18:32:46.026Z,15.35
2023-01-29T18:35:14.612Z,24.63
2023-01-29T18:37:41.564Z,17.30
2023-01-29T18:40:09.687Z,13.50
2023-01-29T18:42:36.604Z,13.73
2023-01-29T18:45:03.828Z,13.45
2023-01-29T18:47:30.555Z,12.88
2023-01-29T18:49:57.400Z,13.85
2023-01-29T18:52:25.888Z,12.32
2023-01-29T18:54:52.804Z,13.00
2023-01-29T18:58:27.338Z,12.25
2023-01-29T19:00:07.712Z,11.57
2023-01-29T19:02:34.501Z,11.77
2023-01-29T19:05:01.262Z,12.07
2023-01-29T19:07:29.654Z,12.50
2023-01-29T19:09:56.419Z,13.02
2023-01-29T19:12:23.682Z,12.10
2023-01-29T19:14:50.411Z,12.20
2023-01-29T19:17:17.324Z,11.68
2023-01-29T19:19:44.241Z,10.52
2023-01-29T19:22:11.060Z,11.65
2023-01-29T19:24:39.162Z,11.77
2023-01-29T19:27:06.086Z,10.90
2023-01-29T19:29:32.937Z,11.80
2023-01-29T19:31:59.671Z,11.48
2023-01-29T19:34:26.401Z,10.90
2023-01-29T19:36:53.144Z,10.25
2023-01-29T19:39:19.864Z,10.23
2023-01-29T19:41:48.010Z,10.35
2023-01-29T19:44:14.708Z,9.43
2023-01-29T19:46:41.363Z,9.02
2023-01-29T19:49:08.161Z,9.80
2023-01-29T19:51:34.831Z,9.73
2023-01-29T19:54:01.629Z,9.70
2023-01-29T19:56:28.292Z,10.15
2023-01-29T19:58:56.547Z,8.68
2023-01-29T20:01:23.947Z,9.35
2023-01-29T20:03:51.428Z,9.15
2023-01-29T20:06:19.995Z,9.07
2023-01-29T20:08:46.911Z,8.50
2023-01-29T20:11:14.351Z,8.38
2023-01-29T20:13:40.995Z,8.15
2023-01-29T20:16:09.406Z,8.48
2023-01-29T20:18:36.194Z,8.65
2023-01-29T20:21:06.627Z,8.52
2023-01-29T20:23:38.133Z,7.95
2023-01-29T20:26:06.359Z,8.82
2023-01-29T20:28:33.634Z,9.20
2023-01-29T20:31:00.666Z,7.93
2023-01-29T20:33:28.667Z,8.07
2023-01-29T20:35:56.311Z,8.40
2023-01-29T20:38:23.837Z,9.07
2023-01-29T20:40:50.447Z,8.15
2023-01-29T20:43:17.077Z,8.10
2023-01-29T20:45:43.837Z,9.82
2023-01-29T20:48:10.564Z,8.45
2023-01-29T20:50:38.678Z,8.93
2023-01-29T20:53:05.301Z,8.88
2023-01-29T20:55:32.090Z,8.88
2023-01-29T20:58:06.095Z,9.63
2023-01-29T21:00:33.576Z,8.75
2023-01-29T21:03:00.210Z,8.60
2023-01-29T21:05:26.912Z,8.65
2023-01-29T21:07:55.507Z,8.88
2023-01-29T21:10:22.251Z,9.20
2023-01-29T21:12:48.895Z,8.55
2023-01-29T21:15:15.607Z,8.93
2023-01-29T21:17:42.240Z,9.75
2023-01-29T21:20:10.060Z,8.85
2023-01-29T21:22:36.874Z,9.13
2023-01-29T21:25:05.800Z,9.35
2023-01-29T21:27:32.406Z,9.25
2023-01-29T21:29:58.987Z,9.63
2023-01-29T21:32:25.666Z,8.73
2023-01-29T21:34:52.734Z,9.90
2023-01-29T21:37:19.423Z,9.73
2023-01-29T21:39:46.130Z,9.65
2023-01-29T21:42:14.174Z,9.65
2023-01-29T21:44:40.817Z,8.63
2023-01-29T21:47:07.474Z,9.18
2023-01-29T21:49:34.051Z,8.75
2023-01-29T21:52:00.617Z,8.27
2023-01-29T21:54:27.185Z,8.07
2023-01-29T21:56:53.846Z,8.25
2023-01-29T21:59:21.862Z,8.68
2023-01-29T22:01:48.904Z,9.20
2023-01-29T22:04:15.587Z,8.48
2023-01-29T22:06:42.275Z,10.10
2023-01-29T22:09:08.913Z,9.63
2023-01-29T22:11:35.607Z,8.68
2023-01-29T22:14:02.195Z,8.82
2023-01-29T22:16:30.201Z,8.70
2023-01-29T22:18:56.827Z,8.77
2023-01-29T22:21:23.434Z,7.60
2023-01-29T22:23:50.123Z,8.88
2023-01-29T22:26:17.018Z,7.75
2023-01-29T22:28:43.762Z,8.25
2023-01-29T22:31:10.508Z,7.70
2023-01-29T22:33:38.509Z,8.60
2023-01-29T22:36:05.891Z,8.35
2023-01-29T22:38:32.486Z,8.88
2023-01-29T22:41:00.368Z,7.82
2023-01-29T22:43:27.109Z,8.18
2023-01-29T22:45:53.739Z,8.10
2023-01-29T22:48:22.214Z,8.05
2023-01-29T22:50:56.212Z,7.95
2023-01-29T22:53:22.834Z,7.45
2023-01-29T22:55:53.691Z,8.38
2023-01-29T22:58:20.332Z,8.18
2023-01-29T23:00:50.048Z,7.40
2023-01-29T23:03:16.743Z,8.05
2023-01-29T23:05:43.418Z,7.72
2023-01-29T23:08:11.513Z,7.43
2023-01-29T23:10:38.309Z,7.72
2023-01-29T23:13:04.914Z,8.20
2023-01-29T23:15:31.530Z,7.80
2023-01-29T23:17:58.312Z,7.85
2023-01-29T23:20:24.988Z,7.80
2023-01-29T23:22:51.722Z,8.60
2023-01-29T23:25:19.765Z,7.85
2023-01-29T23:27:47.210Z,8.43
2023-01-29T23:30:14.051Z,8.50
2023-01-29T23:32:40.813Z,9.60
2023-01-29T23:35:08.258Z,8.75
2023-01-29T23:37:34.886Z,8.95
2023-01-29T23:40:01.625Z,9.50
2023-01-29T23:42:29.627Z,9.23
2023-01-29T23:44:56.375Z,8.40
2023-01-29T23:47:22.963Z,9.43
2023-01-29T23:49:49.798Z,8.40
2023-01-29T23:52:16.377Z,9.70
2023-01-29T23:54:43.042Z,9.43
2023-01-29T23:57:09.940Z,9.50
2023-01-29T23:59:38.060Z,9.45
